createdAt,value
2017-07-28T00:01:02.278Z,99.90
2017-07-28T00:03:29.793Z,99.90
2017-07-28T00:05:57.310Z,99.90
2017-07-28T00:08:25.151Z,99.90
2017-07-28T00:10:52.657Z,99.90
2017-07-28T00:13:20.173Z,99.90
2017-07-28T00:15:48.081Z,99.90
2017-07-28T00:18:15.648Z,99.90
2017-07-28T00:20:43.154Z,99.90
2017-07-28T00:23:11.036Z,99.90
2017-07-28T00:25:38.543Z,99.90
2017-07-28T00:28:06.041Z,99.90
2017-07-28T00:30:33.905Z,99.90
2017-07-28T00:33:01.401Z,99.90
2017-07-28T00:35:28.921Z,99.90
2017-07-28T00:37:56.811Z,99.90
2017-07-28T00:40:24.317Z,99.90
2017-07-28T00:42:52.585Z,99.90
2017-07-28T00:45:20.405Z,99.90
2017-07-28T00:47:47.926Z,99.90
2017-07-28T00:50:15.438Z,99.90
2017-07-28T00:52:43.285Z,99.90
2017-07-28T00:55:10.798Z,99.90
2017-07-28T00:57:38.306Z,99.90
2017-07-28T01:00:06.162Z,99.90
2017-07-28T01:02:33.657Z,99.90
2017-07-28T01:05:01.162Z,99.90
2017-07-28T01:07:29.810Z,99.90
2017-07-28T01:09:57.329Z,99.90
2017-07-28T01:12:24.844Z,99.90
2017-07-28T01:14:52.644Z,99.90
2017-07-28T01:17:20.220Z,99.90
2017-07-28T01:19:47.738Z,99.90
2017-07-28T01:22:16.292Z,99.90
2017-07-28T01:24:43.812Z,99.90
2017-07-28T01:27:11.328Z,99.90
2017-07-28T01:29:39.133Z,99.90
2017-07-28T01:32:06.647Z,99.90
2017-07-28T01:34:34.153Z,99.90
2017-07-28T01:37:01.937Z,99.90
2017-07-28T01:39:29.446Z,99.90
2017-07-28T01:41:56.969Z,99.90
2017-07-28T01:44:24.766Z,99.90
2017-07-28T01:46:52.292Z,99.90
2017-07-28T01:49:19.801Z,99.90
2017-07-28T01:51:47.685Z,99.90
2017-07-28T01:54:15.203Z,99.90
2017-07-28T01:56:42.719Z,99.90
2017-07-28T01:59:10.597Z,99.90
2017-07-28T02:01:38.100Z,99.90
2017-07-28T02:04:06.396Z,99.90
2017-07-28T02:06:34.240Z,99.90
2017-07-28T02:09:01.802Z,99.90
2017-07-28T02:11:29.305Z,99.90
2017-07-28T02:13:57.175Z,99.90
2017-07-28T02:16:24.692Z,99.90
2017-07-28T02:18:52.977Z,99.90
2017-07-28T02:21:20.884Z,99.90
2017-07-28T02:23:48.397Z,99.90
2017-07-28T02:26:15.902Z,99.90
2017-07-28T02:28:43.748Z,99.90
2017-07-28T02:31:11.255Z,99.90
2017-07-28T02:33:38.772Z,99.90
2017-07-28T02:36:06.586Z,99.90
2017-07-28T02:38:34.094Z,99.90
2017-07-28T02:41:01.606Z,99.90
2017-07-28T02:43:29.444Z,99.90
2017-07-28T02:45:56.960Z,99.90
2017-07-28T02:48:24.492Z,99.90
2017-07-28T02:50:52.293Z,99.90
2017-07-28T02:53:19.855Z,99.90
2017-07-28T02:55:47.373Z,99.90
2017-07-28T02:58:15.216Z,99.90
2017-07-28T03:00:42.740Z,99.90
2017-07-28T03:03:10.257Z,99.90
2017-07-28T03:05:38.083Z,99.90
2017-07-28T03:08:05.608Z,99.90
2017-07-28T03:10:33.885Z,99.90
2017-07-28T03:13:02.464Z,99.90
2017-07-28T03:15:30.756Z,99.90
2017-07-28T03:17:58.282Z,99.90
2017-07-28T03:20:26.115Z,99.90
2017-07-28T03:22:53.644Z,99.90
2017-07-28T03:25:21.175Z,99.90
2017-07-28T03:27:48.992Z,99.90
2017-07-28T03:30:16.520Z,99.90
2017-07-28T03:32:44.058Z,99.90
2017-07-28T03:35:11.891Z,99.90
2017-07-28T03:37:39.412Z,99.90
2017-07-28T03:40:06.935Z,99.90
2017-07-28T03:42:34.739Z,99.90
2017-07-28T03:45:02.273Z,99.90
2017-07-28T03:47:29.806Z,99.90
2017-07-28T03:49:57.644Z,99.90
2017-07-28T03:52:25.169Z,99.90
2017-07-28T03:54:53.464Z,99.90
2017-07-28T03:57:21.357Z,99.90
2017-07-28T03:59:48.916Z,99.90
2017-07-28T04:02:16.433Z,99.90
2017-07-28T04:04:44.996Z,99.90
2017-07-28T04:07:12.531Z,99.90
2017-07-28T04:09:40.057Z,99.90
2017-07-28T04:12:07.884Z,99.90
2017-07-28T04:14:35.415Z,99.90
2017-07-28T04:17:02.942Z,99.90
2017-07-28T04:19:30.729Z,99.90
2017-07-28T04:21:58.241Z,99.90
2017-07-28T04:24:25.763Z,99.90
2017-07-28T04:26:53.601Z,99.90
2017-07-28T04:29:21.123Z,99.90
2017-07-28T04:31:48.649Z,99.90
2017-07-28T04:34:16.491Z,99.90
2017-07-28T04:36:44.020Z,99.90
2017-07-28T04:39:12.303Z,99.90
2017-07-28T04:41:40.196Z,99.90
2017-07-28T04:44:07.734Z,99.90
2017-07-28T04:46:35.249Z,99.90
2017-07-28T04:49:03.079Z,99.90
2017-07-28T04:51:30.586Z,99.90
2017-07-28T04:53:58.101Z,99.90
2017-07-28T04:56:25.934Z,99.90
2017-07-28T04:58:53.453Z,99.90
2017-07-28T05:01:20.980Z,99.90
2017-07-28T05:03:48.766Z,99.90
2017-07-28T05:06:16.286Z,99.90
2017-07-28T05:08:43.816Z,99.90
2017-07-28T05:11:11.639Z,99.90
2017-07-28T05:13:39.161Z,99.90
2017-07-28T05:16:06.707Z,99.90
2017-07-28T05:18:34.613Z,99.90
2017-07-28T05:21:02.149Z,99.90
2017-07-28T05:23:29.678Z,99.90
2017-07-28T05:25:57.478Z,99.90
2017-07-28T05:28:24.986Z,99.90
2017-07-28T05:30:52.511Z,99.90
2017-07-28T05:33:20.395Z,99.90
2017-07-28T05:35:47.917Z,99.90
2017-07-28T05:38:15.440Z,99.90
2017-07-28T05:40:43.277Z,99.90
2017-07-28T05:43:10.803Z,99.90
2017-07-28T05:45:38.325Z,99.90
2017-07-28T05:48:06.160Z,99.90
2017-07-28T05:50:33.674Z,99.90
2017-07-28T05:53:01.178Z,99.90
2017-07-28T05:55:29.068Z,99.90
2017-07-28T05:57:56.579Z,99.90
2017-07-28T06:00:24.870Z,99.90
2017-07-28T06:02:52.801Z,99.90
2017-07-28T06:05:20.315Z,99.90
2017-07-28T06:07:47.827Z,99.90
2017-07-28T06:10:15.639Z,99.90
2017-07-28T06:12:43.169Z,99.90
2017-07-28T06:15:10.702Z,99.90
2017-07-28T06:17:38.543Z,99.90
2017-07-28T06:20:06.086Z,99.90
2017-07-28T06:22:33.603Z,99.90
2017-07-28T06:25:01.514Z,99.90
2017-07-28T06:27:29.698Z,99.90
2017-07-28T06:29:57.212Z,99.90
2017-07-28T06:32:25.131Z,99.90
2017-07-28T06:34:52.652Z,99.90
2017-07-28T06:37:20.172Z,99.90
2017-07-28T06:39:47.970Z,99.90
2017-07-28T06:42:15.497Z,99.90
2017-07-28T06:44:43.023Z,99.90
2017-07-28T06:47:10.896Z,99.90
2017-07-28T06:49:38.411Z,99.90
2017-07-28T06:52:05.936Z,99.90
2017-07-28T06:54:33.746Z,99.90
2017-07-28T06:57:01.276Z,99.90
2017-07-28T06:59:28.782Z,99.90
2017-07-28T07:01:56.651Z,99.90
2017-07-28T07:04:24.151Z,99.90
2017-07-28T07:06:51.674Z,99.90
2017-07-28T07:09:19.560Z,99.90
2017-07-28T07:11:47.075Z,99.90
2017-07-28T07:14:14.604Z,99.90
2017-07-28T07:16:42.428Z,99.90
2017-07-28T07:19:09.941Z,99.90
2017-07-28T07:21:37.502Z,99.90
2017-07-28T07:24:05.414Z,99.90
2017-07-28T07:26:32.914Z,99.90
2017-07-28T07:29:00.435Z,99.90
2017-07-28T07:31:28.292Z,99.90
2017-07-28T07:33:55.818Z,99.90
2017-07-28T07:36:24.099Z,99.90
2017-07-28T07:38:52.023Z,99.90
2017-07-28T07:41:19.555Z,99.90
2017-07-28T07:43:47.063Z,99.90
2017-07-28T07:46:14.906Z,99.90
2017-07-28T07:48:42.447Z,99.90
2017-07-28T07:51:09.962Z,99.90
2017-07-28T07:53:37.757Z,99.90
2017-07-28T07:56:05.283Z,99.90
2017-07-28T07:58:32.796Z,99.90
2017-07-28T08:01:00.586Z,99.90
2017-07-28T08:03:28.089Z,99.90
2017-07-28T08:05:55.598Z,99.90
2017-07-28T08:08:23.543Z,99.90
2017-07-28T08:10:51.059Z,99.90
2017-07-28T08:13:18.587Z,99.90
2017-07-28T08:15:46.435Z,99.90
2017-07-28T08:18:13.956Z,99.90
2017-07-28T08:20:42.229Z,99.90
2017-07-28T08:23:10.854Z,99.90
2017-07-28T08:25:38.366Z,99.90
2017-07-28T08:28:05.878Z,99.90
2017-07-28T08:30:33.771Z,99.90
2017-07-28T08:33:02.186Z,99.90
2017-07-28T08:35:30.458Z,99.90
2017-07-28T08:37:59.022Z,99.90
2017-07-28T08:40:26.532Z,99.90
2017-07-28T08:42:54.058Z,99.90
2017-07-28T08:45:22.669Z,99.90
2017-07-28T08:47:50.188Z,99.90
2017-07-28T08:50:17.713Z,99.90
2017-07-28T08:52:45.561Z,99.90
2017-07-28T08:55:13.079Z,99.90
2017-07-28T08:57:40.589Z,99.90
2017-07-28T09:00:08.438Z,99.90
2017-07-28T09:02:35.959Z,99.90
2017-07-28T09:05:04.246Z,99.90
2017-07-28T09:07:32.052Z,99.90
2017-07-28T09:09:59.558Z,99.90
2017-07-28T09:12:27.070Z,99.90
2017-07-28T09:14:54.599Z,99.90
2017-07-28T09:17:22.907Z,99.90
2017-07-28T09:19:50.441Z,99.90
2017-07-28T09:22:17.962Z,99.90
2017-07-28T09:24:45.774Z,99.90
2017-07-28T09:27:13.287Z,99.90
2017-07-28T09:29:40.801Z,99.90
2017-07-28T09:32:08.332Z,99.90
2017-07-28T09:34:35.895Z,99.90
2017-07-28T09:37:04.488Z,99.90
2017-07-28T09:39:31.999Z,99.90
2017-07-28T09:41:59.502Z,99.90
2017-07-28T09:44:27.813Z,99.90
2017-07-28T09:46:55.312Z,99.90
2017-07-28T09:49:22.844Z,99.90
2017-07-28T09:51:50.349Z,99.90
2017-07-28T09:54:18.639Z,99.90
2017-07-28T09:56:46.148Z,99.90
2017-07-28T09:59:14.031Z,99.90
2017-07-28T10:01:41.529Z,99.90
2017-07-28T10:04:09.049Z,99.90
2017-07-28T10:06:36.883Z,99.90
2017-07-28T10:09:04.441Z,99.90
2017-07-28T10:11:31.962Z,99.90
2017-07-28T10:14:00.561Z,99.90
2017-07-28T10:16:28.061Z,99.90
2017-07-28T10:18:55.576Z,99.90
2017-07-28T10:21:23.368Z,99.90
2017-07-28T10:23:50.894Z,99.90
2017-07-28T10:26:18.416Z,99.90
2017-07-28T10:28:46.255Z,99.90
2017-07-28T10:31:13.765Z,99.90
2017-07-28T10:33:42.035Z,99.90
2017-07-28T10:36:09.846Z,99.90
2017-07-28T10:38:37.352Z,99.90
2017-07-28T10:41:04.879Z,99.90
2017-07-28T10:43:32.684Z,99.90
2017-07-28T10:46:00.228Z,99.90
2017-07-28T10:48:27.730Z,99.90
2017-07-28T10:50:55.623Z,99.40
2017-07-28T10:53:23.142Z,99.40
2017-07-28T10:55:51.418Z,99.70
2017-07-28T10:58:20.017Z,99.20
2017-07-28T11:00:47.522Z,99.30
2017-07-28T11:03:15.313Z,99.90
2017-07-28T11:05:43.136Z,99.90
2017-07-28T11:08:10.650Z,99.90
2017-07-28T11:10:38.925Z,99.90
2017-07-28T11:13:07.630Z,99.90
2017-07-28T11:15:35.356Z,99.90
2017-07-28T11:18:02.877Z,99.90
2017-07-28T11:20:30.684Z,99.80
2017-07-28T11:22:58.196Z,99.70
2017-07-28T11:25:25.704Z,99.90
2017-07-28T11:27:53.520Z,99.90
2017-07-28T11:30:21.040Z,99.90
2017-07-28T11:32:48.555Z,99.90
2017-07-28T11:35:16.416Z,99.90
2017-07-28T11:37:43.975Z,99.90
2017-07-28T11:40:11.491Z,99.90
2017-07-28T11:42:40.110Z,99.90
2017-07-28T11:45:07.636Z,99.90
2017-07-28T11:47:35.909Z,99.90
2017-07-28T11:50:04.202Z,99.90
2017-07-28T11:52:31.709Z,99.90
2017-07-28T11:54:59.557Z,99.90
2017-07-28T11:57:27.061Z,99.90
2017-07-28T11:59:54.570Z,99.90
2017-07-28T12:02:22.100Z,99.90
2017-07-28T12:04:50.397Z,99.90
2017-07-28T12:07:18.266Z,99.90
2017-07-28T12:09:45.778Z,99.80
2017-07-28T12:12:13.292Z,99.90
2017-07-28T12:14:40.827Z,99.90
2017-07-28T12:17:08.354Z,99.30
2017-07-28T12:19:35.860Z,98.40
2017-07-28T12:22:03.731Z,99.90
2017-07-28T12:24:31.238Z,99.90
2017-07-28T12:26:58.749Z,99.90
2017-07-28T12:29:26.643Z,99.30
2017-07-28T12:31:54.158Z,99.90
2017-07-28T12:34:21.666Z,99.90
2017-07-28T12:36:49.508Z,98.60
2017-07-28T12:39:17.030Z,98.00
2017-07-28T12:41:45.302Z,97.90
2017-07-28T12:44:13.935Z,97.30
2017-07-28T12:46:41.453Z,97.00
2017-07-28T12:49:09.763Z,97.30
2017-07-28T12:51:37.647Z,97.30
2017-07-28T12:54:05.167Z,97.00
2017-07-28T12:56:32.694Z,97.90
2017-07-28T12:59:00.526Z,98.20
2017-07-28T13:01:28.043Z,97.70
2017-07-28T13:03:56.310Z,97.90
2017-07-28T13:06:24.944Z,96.70
2017-07-28T13:08:52.453Z,96.70
2017-07-28T13:11:20.753Z,96.40
2017-07-28T13:13:48.639Z,96.30
2017-07-28T13:16:16.145Z,96.30
2017-07-28T13:18:43.662Z,97.20
2017-07-28T13:21:11.537Z,96.40
2017-07-28T13:23:39.045Z,98.10
2017-07-28T13:26:07.327Z,98.40
2017-07-28T13:28:35.943Z,97.30
2017-07-28T13:31:03.454Z,97.30
2017-07-28T13:33:30.977Z,96.90
2017-07-28T13:35:58.825Z,96.80
2017-07-28T13:38:26.335Z,97.10
2017-07-28T13:40:53.843Z,95.10
2017-07-28T13:43:21.678Z,95.30
2017-07-28T13:46:05.794Z,96.80
2017-07-28T13:48:33.630Z,96.30
2017-07-28T13:51:01.151Z,95.30
2017-07-28T13:53:29.430Z,94.70
2017-07-28T13:55:58.059Z,93.80
2017-07-28T13:58:25.571Z,93.80
2017-07-28T14:00:53.842Z,95.70
2017-07-28T14:03:22.485Z,96.00
2017-07-28T14:05:50.033Z,96.00
2017-07-28T14:08:17.586Z,94.10
2017-07-28T14:10:45.456Z,93.20
2017-07-28T14:13:12.987Z,93.60
2017-07-28T14:15:41.187Z,93.40
2017-07-28T14:18:09.061Z,93.00
2017-07-28T14:20:36.575Z,93.30
2017-07-28T14:23:04.851Z,94.50
2017-07-28T14:25:32.659Z,94.50
2017-07-28T14:28:00.177Z,94.00
2017-07-28T14:30:28.443Z,92.50
2017-07-28T14:32:56.255Z,92.30
2017-07-28T14:35:23.754Z,92.60
2017-07-28T14:37:51.280Z,93.20
2017-07-28T14:40:19.137Z,92.70
2017-07-28T14:42:46.648Z,93.10
2017-07-28T14:45:14.149Z,93.70
2017-07-28T14:47:41.981Z,92.30
2017-07-28T14:50:09.489Z,91.20
2017-07-28T14:52:37.007Z,91.90
2017-07-28T14:55:05.635Z,91.90
2017-07-28T14:57:33.158Z,91.80
2017-07-28T15:00:01.430Z,90.60
2017-07-28T15:02:30.066Z,91.10
2017-07-28T15:04:57.829Z,90.90
2017-07-28T15:07:25.349Z,90.10
2017-07-28T15:09:53.956Z,90.70
2017-07-28T15:12:21.484Z,91.00
2017-07-28T15:14:48.988Z,90.40
2017-07-28T15:17:16.841Z,90.00
2017-07-28T15:19:44.352Z,88.60
2017-07-28T15:22:11.862Z,87.50
2017-07-28T15:24:39.391Z,88.50
2017-07-28T15:27:07.741Z,90.70
2017-07-28T15:29:35.292Z,90.70
2017-07-28T15:32:02.798Z,90.70
2017-07-28T15:34:30.598Z,88.30
2017-07-28T15:36:58.114Z,86.30
2017-07-28T15:39:26.400Z,88.70
2017-07-28T15:41:53.951Z,88.60
2017-07-28T15:44:22.245Z,90.00
2017-07-28T15:46:50.122Z,90.00
2017-07-28T15:49:17.635Z,87.20
2017-07-28T15:51:45.147Z,90.10
2017-07-28T15:54:12.677Z,92.30
2017-07-28T15:56:40.942Z,95.00
2017-07-28T15:59:08.767Z,95.00
2017-07-28T16:01:36.299Z,94.90
2017-07-28T16:04:03.846Z,93.20
2017-07-28T16:06:31.375Z,94.30
2017-07-28T16:08:58.886Z,95.70
2017-07-28T16:11:26.447Z,95.70
2017-07-28T16:13:53.963Z,97.10
2017-07-28T16:16:22.599Z,95.90
2017-07-28T16:18:50.196Z,95.50
2017-07-28T16:21:17.719Z,94.90
2017-07-28T16:23:46.044Z,92.60
2017-07-28T16:26:15.064Z,89.70
2017-07-28T16:28:42.892Z,89.70
2017-07-28T16:31:10.398Z,88.50
2017-07-28T16:33:37.906Z,86.40
2017-07-28T16:36:05.433Z,83.80
2017-07-28T16:38:32.943Z,82.90
2017-07-28T16:41:00.847Z,76.10
2017-07-28T16:43:28.375Z,80.40
2017-07-28T16:45:56.694Z,73.30
2017-07-28T16:48:24.227Z,73.00
2017-07-28T16:50:51.745Z,79.70
2017-07-28T16:53:19.566Z,82.60
2017-07-28T16:55:47.067Z,84.00
2017-07-28T16:58:14.583Z,89.80
2017-07-28T17:00:42.097Z,90.60
2017-07-28T17:03:09.601Z,92.80
2017-07-28T17:05:37.125Z,93.50
2017-07-28T17:08:05.713Z,95.80
2017-07-28T17:10:34.013Z,97.60
2017-07-28T17:13:01.521Z,97.40
2017-07-28T17:15:29.049Z,96.00
2017-07-28T17:17:56.584Z,97.30
2017-07-28T17:20:24.383Z,96.70
2017-07-28T17:22:51.905Z,94.10
2017-07-28T17:25:20.191Z,84.20
2017-07-28T17:27:47.705Z,84.20
2017-07-28T17:30:16.135Z,79.40
2017-07-28T17:32:43.937Z,81.20
2017-07-28T17:35:11.445Z,77.80
2017-07-28T17:37:39.719Z,81.90
2017-07-28T17:40:07.253Z,81.80
2017-07-28T17:42:34.762Z,79.60
2017-07-28T17:45:02.580Z,74.80
2017-07-28T17:47:30.095Z,77.20
2017-07-28T17:49:57.616Z,81.40
2017-07-28T17:52:25.931Z,83.50
2017-07-28T17:54:53.706Z,83.50
2017-07-28T17:57:21.580Z,87.50
2017-07-28T17:59:49.094Z,91.20
2017-07-28T18:02:17.361Z,94.40
2017-07-28T18:04:45.656Z,94.90
2017-07-28T18:07:13.158Z,94.80
2017-07-28T18:09:41.002Z,96.10
2017-07-28T18:12:08.539Z,97.00
2017-07-28T18:14:36.074Z,97.10
2017-07-28T18:17:03.603Z,96.80
2017-07-28T18:19:31.132Z,98.40
2017-07-28T18:21:58.994Z,97.60
2017-07-28T18:24:26.501Z,99.90
2017-07-28T18:26:54.015Z,99.90
2017-07-28T18:29:21.542Z,99.90
2017-07-28T18:31:49.840Z,99.90
2017-07-28T18:34:18.448Z,99.90
2017-07-28T18:36:45.977Z,99.90
2017-07-28T18:39:14.314Z,99.90
2017-07-28T18:41:41.852Z,99.90
2017-07-28T18:44:09.371Z,99.90
2017-07-28T18:46:37.986Z,99.90
2017-07-28T18:49:05.491Z,99.90
2017-07-28T18:51:33.010Z,99.90
2017-07-28T18:54:00.526Z,99.90
2017-07-28T18:56:28.106Z,99.90
2017-07-28T18:58:55.999Z,99.90
2017-07-28T19:01:23.529Z,99.90
2017-07-28T19:03:51.797Z,99.90
2017-07-28T19:06:19.313Z,99.90
2017-07-28T19:08:48.429Z,99.90
2017-07-28T19:11:16.248Z,99.90
2017-07-28T19:13:43.777Z,99.90
2017-07-28T19:16:11.292Z,99.90
2017-07-28T19:18:38.822Z,99.90
2017-07-28T19:21:06.326Z,99.90
2017-07-28T19:23:34.134Z,99.90
2017-07-28T19:26:01.654Z,99.90
2017-07-28T19:28:29.169Z,99.90
2017-07-28T19:30:56.706Z,99.90
2017-07-28T19:33:24.220Z,99.90
2017-07-28T19:35:52.049Z,99.90
2017-07-28T19:38:20.350Z,99.90
2017-07-28T19:40:47.865Z,99.90
2017-07-28T19:43:16.177Z,99.90
2017-07-28T19:45:43.687Z,99.90
2017-07-28T19:48:12.300Z,99.90
2017-07-28T19:50:39.811Z,99.90
2017-07-28T19:53:07.335Z,99.90
2017-07-28T19:55:34.862Z,99.90
2017-07-28T19:58:03.165Z,99.90
2017-07-28T20:00:31.031Z,99.90
2017-07-28T20:02:58.561Z,99.90
2017-07-28T20:05:26.101Z,99.90
2017-07-28T20:07:53.633Z,99.90
2017-07-28T20:10:21.152Z,99.90
2017-07-28T20:12:49.043Z,99.90
2017-07-28T20:15:16.571Z,99.90
2017-07-28T20:17:44.069Z,99.90
2017-07-28T20:20:11.591Z,99.90
2017-07-28T20:22:39.884Z,99.90
2017-07-28T20:25:07.421Z,99.90
2017-07-28T20:27:35.707Z,99.90
2017-07-28T20:30:03.584Z,99.90
2017-07-28T20:32:31.133Z,99.90
2017-07-28T20:34:59.409Z,99.90
2017-07-28T20:37:27.726Z,99.90
2017-07-28T20:39:55.243Z,99.90
2017-07-28T20:42:23.137Z,99.90
2017-07-28T20:44:50.663Z,99.90
2017-07-28T20:47:18.194Z,99.90
2017-07-28T20:49:45.724Z,99.90
2017-07-28T20:52:13.229Z,99.90
2017-07-28T20:54:41.140Z,99.90
2017-07-28T20:57:08.658Z,99.90
2017-07-28T20:59:36.244Z,99.90
2017-07-28T21:02:03.771Z,99.90
2017-07-28T21:04:31.289Z,99.90
2017-07-28T21:06:59.405Z,99.90
2017-07-28T21:09:26.931Z,99.90
2017-07-28T21:11:54.456Z,99.90
2017-07-28T21:14:21.981Z,99.90
2017-07-28T21:16:49.499Z,99.90
2017-07-28T21:19:17.360Z,99.90
2017-07-28T21:21:44.866Z,99.90
2017-07-28T21:24:12.374Z,99.90
2017-07-28T21:26:39.927Z,99.90
2017-07-28T21:29:07.436Z,99.90
2017-07-28T21:31:34.947Z,99.90
2017-07-28T21:34:02.833Z,99.90
2017-07-28T21:36:30.350Z,99.90
2017-07-28T21:38:57.880Z,99.90
2017-07-28T21:41:25.412Z,99.90
2017-07-28T21:43:52.917Z,99.90
2017-07-28T21:46:20.826Z,99.90
2017-07-28T21:48:48.364Z,99.90
2017-07-28T21:51:15.883Z,99.90
2017-07-28T21:53:43.406Z,99.90
2017-07-28T21:56:10.910Z,99.90
2017-07-28T21:58:38.736Z,99.90
2017-07-28T22:01:06.249Z,99.90
2017-07-28T22:03:34.548Z,99.90
2017-07-28T22:06:02.080Z,99.90
2017-07-28T22:08:29.582Z,99.90
2017-07-28T22:10:57.379Z,99.90
2017-07-28T22:13:24.899Z,99.90
2017-07-28T22:15:52.414Z,99.90
2017-07-28T22:18:19.949Z,99.90
2017-07-28T22:20:47.478Z,99.90
2017-07-28T22:23:15.373Z,99.90
2017-07-28T22:25:42.877Z,99.90
2017-07-28T22:28:10.390Z,99.90
2017-07-28T22:30:37.932Z,99.90
2017-07-28T22:33:05.453Z,99.90
2017-07-28T22:35:34.078Z,99.90
2017-07-28T22:38:01.579Z,99.90
2017-07-28T22:40:29.110Z,99.90
2017-07-28T22:42:56.655Z,99.90
2017-07-28T22:45:24.176Z,99.90
2017-07-28T22:47:52.089Z,99.90
2017-07-28T22:50:19.604Z,99.90
2017-07-28T22:52:47.121Z,99.90
2017-07-28T22:55:14.651Z,99.90
2017-07-28T22:57:42.170Z,99.90
2017-07-28T23:00:10.106Z,99.90
2017-07-28T23:02:37.634Z,99.90
2017-07-28T23:05:05.151Z,99.90
2017-07-28T23:07:32.692Z,99.90
2017-07-28T23:10:00.202Z,99.90
2017-07-28T23:12:28.797Z,99.90
2017-07-28T23:14:56.302Z,99.90
2017-07-28T23:17:23.810Z,99.90
2017-07-28T23:19:51.356Z,99.90
2017-07-28T23:22:18.877Z,99.90
2017-07-28T23:24:46.727Z,99.90
2017-07-28T23:27:14.240Z,99.90
2017-07-28T23:29:41.774Z,99.90
2017-07-28T23:32:09.291Z,99.90
2017-07-28T23:34:36.803Z,99.90
2017-07-28T23:37:04.615Z,99.90
2017-07-28T23:39:32.122Z,99.90
2017-07-28T23:41:59.652Z,99.90
2017-07-28T23:44:27.188Z,99.90
2017-07-28T23:46:54.699Z,99.90
2017-07-28T23:49:22.535Z,99.90
2017-07-28T23:51:50.042Z,99.90
2017-07-28T23:54:18.319Z,99.90
2017-07-28T23:56:45.860Z,99.90
2017-07-28T23:59:13.382Z,99.90
